Time;durP1;ratioP1;P1;durP2;ratioP2;P2;SDS_P1;SDS_P2;PMS_P1;PMS_P2;Temp;Humidity;BMP_temperature;BMP_pressure;BME280_temperature;BME280_humidity;BME280_pressure;Samples;Min_cycle;Max_cycle;Signal;HPM_P1;HPM_P2
2022/04/27 00:01:10;;;;;;;7.53;3.90;;;;;;;11.58;54.21;101553.59;5079586;28;20064;-66
2022/04/27 00:03:37;;;;;;;6.75;3.75;;;;;;;11.70;53.79;101552.19;5078352;28;20048;-70
2022/04/27 00:06:03;;;;;;;10.32;3.83;;;;;;;11.93;53.11;101553.88;5089742;28;20487;-70
2022/04/27 00:08:29;;;;;;;7.65;3.90;;;;;;;11.91;52.44;101553.06;5090852;28;20048;-70
2022/04/27 00:10:57;;;;;;;9.57;3.67;;;;;;;11.99;51.86;101553.56;5082381;28;20130;-70
2022/04/27 00:13:23;;;;;;;7.45;4.15;;;;;;;11.90;52.36;101548.75;5088107;28;20427;-70
2022/04/27 00:15:50;;;;;;;5.13;3.60;;;;;;;11.71;53.08;101562.66;5089784;28;20044;-70
2022/04/27 00:18:16;;;;;;;9.93;3.80;;;;;;;11.55;52.78;101564.22;5088508;28;20585;-70
2022/04/27 00:20:43;;;;;;;7.57;4.38;;;;;;;11.58;52.79;101564.09;5079827;28;20052;-70
2022/04/27 00:23:09;;;;;;;7.07;4.25;;;;;;;11.43;53.76;101567.34;5088708;28;20043;-70
2022/04/27 00:25:36;;;;;;;7.03;3.90;;;;;;;10.94;54.88;101580.81;5089608;28;20055;-70
2022/04/27 00:28:04;;;;;;;5.85;3.60;;;;;;;10.06;57.35;101592.84;5085328;28;20135;-70
2022/04/27 00:30:31;;;;;;;8.90;4.22;;;;;;;10.02;57.24;101590.38;5082362;28;20094;-70
2022/04/27 00:32:57;;;;;;;7.30;4.10;;;;;;;9.70;59.07;101584.53;5081430;28;20092;-70
2022/04/27 00:35:24;;;;;;;8.30;4.10;;;;;;;9.75;59.47;101586.97;5089527;28;20051;-70
2022/04/27 00:37:50;;;;;;;12.55;4.68;;;;;;;9.66;60.55;101585.53;5084450;28;20105;-70
2022/04/27 00:40:16;;;;;;;11.93;3.90;;;;;;;9.57;60.93;101585.81;5078946;28;20040;-70
2022/04/27 00:42:43;;;;;;;7.68;3.88;;;;;;;9.66;61.01;101588.16;5088651;28;20511;-70
2022/04/27 00:45:11;;;;;;;6.30;3.72;;;;;;;9.84;60.28;101591.88;5078750;28;20044;-70
2022/04/27 00:47:37;;;;;;;6.13;3.90;;;;;;;9.75;60.48;101595.66;5085604;28;20076;-70
2022/04/27 00:50:04;;;;;;;7.07;4.03;;;;;;;9.99;59.89;101590.50;5088080;28;20070;-70
2022/04/27 00:52:32;;;;;;;6.13;3.80;;;;;;;10.16;59.11;101588.16;5087513;28;20055;-70
2022/04/27 00:54:58;;;;;;;7.35;3.72;;;;;;;10.04;59.15;101594.66;5077889;28;20074;-70
2022/04/27 00:57:25;;;;;;;4.90;3.47;;;;;;;10.29;58.36;101597.28;5083572;28;20051;-70
2022/04/27 00:59:52;;;;;;;6.97;3.45;;;;;;;10.37;57.95;101589.13;5087760;28;20080;-70
2022/04/27 01:02:21;;;;;;;6.95;3.50;;;;;;;10.25;58.44;101590.44;5077808;28;20066;-70
2022/04/27 01:04:47;;;;;;;5.05;3.38;;;;;;;10.23;58.20;101592.28;5079008;28;20418;-69
2022/04/27 01:07:14;;;;;;;11.45;3.58;;;;;;;10.29;57.42;101586.78;5088353;28;20059;-69
2022/04/27 01:09:41;;;;;;;6.32;3.55;;;;;;;10.52;56.61;101593.81;5088358;28;20105;-69
2022/04/27 01:12:08;;;;;;;4.53;3.13;;;;;;;10.48;56.47;101587.81;5087826;28;20109;-69
2022/04/27 01:14:42;;;;;;;7.38;3.75;;;;;;;10.50;56.45;101591.22;5088796;28;20058;-69
2022/04/27 01:17:09;;;;;;;4.80;3.25;;;;;;;10.52;55.99;101592.03;5088692;28;20135;-69
2022/04/27 01:19:37;;;;;;;5.75;3.75;;;;;;;10.51;56.03;101598.19;5085567;28;20048;-69
2022/04/27 01:22:05;;;;;;;5.18;3.20;;;;;;;10.42;55.98;101598.53;5088082;28;20051;-70
2022/04/27 01:24:31;;;;;;;5.35;3.50;;;;;;;10.09;56.99;101597.97;5086952;28;20047;-71
2022/04/27 01:26:58;;;;;;;6.18;3.45;;;;;;;10.00;57.56;101594.81;5086138;28;20064;-70
2022/04/27 01:29:25;;;;;;;5.55;3.45;;;;;;;10.05;57.17;101596.34;5081874;28;20101;-70
2022/04/27 01:31:53;;;;;;;10.00;4.30;;;;;;;10.05;57.55;101601.59;5076202;28;20044;-70
2022/04/27 01:34:20;;;;;;;5.18;3.30;;;;;;;10.09;57.47;101597.97;5076626;28;20055;-70
2022/04/27 01:36:47;;;;;;;5.45;3.55;;;;;;;10.05;57.86;101603.38;5088162;28;20105;-70
2022/04/27 01:39:15;;;;;;;5.93;3.67;;;;;;;10.02;58.02;101608.72;5087925;28;20120;-70
2022/04/27 01:41:41;;;;;;;10.35;4.35;;;;;;;10.10;57.61;101604.06;5088075;28;20044;-70
2022/04/27 01:44:07;;;;;;;10.43;3.72;;;;;;;10.02;57.65;101611.34;5087935;28;20044;-70
2022/04/27 01:46:33;;;;;;;5.97;3.38;;;;;;;10.05;57.39;101608.63;5089178;28;20078;-70
2022/04/27 01:49:00;;;;;;;5.32;3.42;;;;;;;10.00;57.26;101615.78;5067401;28;20557;-70
2022/04/27 01:54:16;;;;;;;7.72;3.50;;;;;;;9.82;57.73;101616.44;5052996;28;20048;-70
2022/04/27 01:56:44;;;;;;;6.32;3.10;;;;;;;9.63;58.84;101619.69;5065763;28;20040;-70
2022/04/27 01:59:10;;;;;;;6.07;3.70;;;;;;;9.58;58.84;101620.72;5067562;28;20047;-70
2022/04/27 02:01:37;;;;;;;6.07;3.42;;;;;;;9.53;59.13;101620.03;5067992;28;20150;-69
2022/04/27 02:04:04;;;;;;;6.95;3.47;;;;;;;9.44;59.33;101621.19;5073969;28;20040;-69
2022/04/27 02:06:30;;;;;;;6.55;3.50;;;;;;;9.36;59.79;101631.06;5088407;28;20040;-69
2022/04/27 02:08:56;;;;;;;7.53;3.55;;;;;;;9.19;60.17;101639.47;5087060;28;20051;-69
2022/04/27 02:11:24;;;;;;;8.38;3.90;;;;;;;9.41;60.26;101628.28;5087261;28;20043;-69
2022/04/27 02:13:54;;;;;;;5.85;3.70;;;;;;;9.43;60.81;101634.31;5077298;28;20048;-69
2022/04/27 02:16:22;;;;;;;5.00;3.53;;;;;;;9.39;60.92;101630.94;5068022;28;20131;-69
2022/04/27 02:18:48;;;;;;;6.82;3.70;;;;;;;9.33;61.61;101635.53;5084772;28;20044;-70
2022/04/27 02:21:15;;;;;;;5.32;3.60;;;;;;;9.18;61.76;101639.50;5072189;28;20048;-70
2022/04/27 02:23:41;;;;;;;5.88;3.80;;;;;;;9.25;61.73;101641.00;5074783;28;20051;-70
2022/04/27 02:26:08;;;;;;;6.88;3.63;;;;;;;9.10;62.00;101638.88;5079910;28;20578;-70
2022/04/27 02:28:34;;;;;;;6.00;3.75;;;;;;;9.06;61.77;101643.34;5091899;28;20048;-70
2022/04/27 02:31:02;;;;;;;6.78;3.78;;;;;;;9.18;61.31;101642.97;5066017;28;20561;-70
2022/04/27 02:33:29;;;;;;;7.15;3.70;;;;;;;9.16;61.16;101649.16;5072995;28;20041;-70
2022/04/27 02:35:56;;;;;;;9.30;3.90;;;;;;;8.89;60.98;101647.41;5071373;28;20048;-70
2022/04/27 02:38:22;;;;;;;6.95;3.95;;;;;;;8.90;60.66;101652.59;5071834;28;20044;-70
2022/04/27 02:40:49;;;;;;;4.95;3.83;;;;;;;9.18;60.03;101647.34;5070668;28;20049;-70
2022/04/27 02:43:15;;;;;;;15.70;4.07;;;;;;;9.54;58.90;101640.06;5071667;28;20036;-70
2022/04/27 02:45:42;;;;;;;5.80;3.70;;;;;;;9.56;58.69;101646.13;5071650;28;20071;-70
2022/04/27 02:48:10;;;;;;;6.32;3.67;;;;;;;9.51;58.90;101651.50;5071502;28;20044;-70
2022/04/27 02:53:22;;;;;;;6.78;4.00;;;;;;;9.51;59.19;101672.44;5091927;28;20043;-70
2022/04/27 02:55:48;;;;;;;6.88;4.22;;;;;;;9.62;58.80;101672.94;5091401;28;20078;-70
2022/04/27 02:58:14;;;;;;;5.93;3.95;;;;;;;9.46;59.42;101671.72;5089750;28;20052;-70
2022/04/27 03:00:44;;;;;;;7.85;3.95;;;;;;;9.55;59.69;101679.31;5077011;28;20122;-70
2022/04/27 03:03:11;;;;;;;7.35;4.05;;;;;;;9.52;60.42;101682.03;5068961;28;20052;-70
2022/04/27 03:05:38;;;;;;;12.77;4.35;;;;;;;9.31;61.05;101677.47;5070201;28;20070;-70
2022/04/27 03:08:05;;;;;;;6.68;3.97;;;;;;;9.55;60.47;101675.81;5071825;28;20086;-70
2022/04/27 03:10:32;;;;;;;6.05;4.05;;;;;;;9.50;60.76;101681.19;5074047;28;20411;-70
2022/04/27 03:12:59;;;;;;;6.88;4.20;;;;;;;9.56;60.07;101681.03;5091288;28;20048;-70
2022/04/27 03:15:25;;;;;;;6.65;3.67;;;;;;;9.61;59.84;101675.59;5091504;28;20052;-70
2022/04/27 03:18:17;;;;;;;5.50;3.63;;;;;;;9.71;59.44;101679.66;5083188;28;20133;-70
2022/04/27 03:20:39;;;;;;;8.05;3.65;;;;;;;9.64;59.75;101686.88;5072543;28;20040;-70
2022/04/27 03:23:06;;;;;;;7.50;4.00;;;;;;;9.74;59.27;101690.88;5091010;28;20043;-70
2022/04/27 03:25:33;;;;;;;6.25;4.10;;;;;;;9.88;58.73;101697.41;5086350;28;20044;-70
2022/04/27 03:27:59;;;;;;;5.97;4.10;;;;;;;9.90;58.40;101700.84;5070574;28;20057;-70
2022/04/27 03:30:26;;;;;;;10.60;4.13;;;;;;;9.41;60.39;101706.81;5082265;28;20074;-70
2022/04/27 03:32:54;;;;;;;7.95;3.92;;;;;;;9.47;60.31;101711.84;5082308;28;20131;-70
2022/04/27 03:35:20;;;;;;;6.68;4.13;;;;;;;9.30;60.93;101709.78;5073779;28;20124;-70
2022/04/27 03:37:48;;;;;;;7.20;4.15;;;;;;;9.29;60.82;101713.28;5070714;28;20048;-70
2022/04/27 03:40:14;;;;;;;6.75;4.32;;;;;;;9.40;60.50;101710.34;5073825;28;20105;-70
2022/04/27 03:42:41;;;;;;;7.53;4.25;;;;;;;9.55;59.92;101708.09;5090251;28;20051;-70
2022/04/27 03:45:08;;;;;;;8.00;4.13;;;;;;;9.98;58.71;101714.53;5090895;28;20117;-70
2022/04/27 03:47:34;;;;;;;5.85;3.70;;;;;;;9.91;58.40;101706.03;5086910;28;20040;-70
2022/04/27 03:50:04;;;;;;;6.10;4.18;;;;;;;10.05;58.07;101716.06;5069350;28;20040;-70
2022/04/27 03:52:30;;;;;;;10.32;4.00;;;;;;;10.06;57.73;101713.38;5074825;28;20047;-70
2022/04/27 03:55:00;;;;;;;7.00;4.07;;;;;;;10.21;56.92;101719.88;5070195;28;20040;-70
2022/04/27 03:57:27;;;;;;;7.03;4.25;;;;;;;9.75;58.98;101716.16;5069827;28;20050;-70
2022/04/27 03:59:53;;;;;;;5.47;3.83;;;;;;;9.23;60.50;101716.09;5069036;28;20105;-70
2022/04/27 04:02:20;;;;;;;8.88;4.20;;;;;;;9.55;59.18;101725.56;5068442;28;20049;-70
2022/04/27 04:04:46;;;;;;;7.93;4.05;;;;;;;9.97;57.49;101712.84;5068142;28;20076;-70
2022/04/27 04:07:13;;;;;;;7.63;4.03;;;;;;;9.75;57.77;101721.38;5083056;28;20044;-70
2022/04/27 04:09:40;;;;;;;7.60;3.83;;;;;;;9.23;59.80;101730.06;5089289;28;20050;-70
2022/04/27 04:12:08;;;;;;;7.03;4.28;;;;;;;9.48;58.95;101735.38;5076014;28;20428;-70
2022/04/27 04:14:36;;;;;;;7.53;4.20;;;;;;;9.76;58.03;101741.44;5080545;28;20094;-70
2022/04/27 04:17:03;;;;;;;7.82;4.50;;;;;;;10.11;56.96;101744.66;5065950;28;20040;-70
2022/04/27 04:19:30;;;;;;;8.82;4.65;;;;;;;10.12;56.63;101757.72;5069095;28;20114;-70
2022/04/27 04:21:56;;;;;;;8.30;3.83;;;;;;;9.88;57.44;101752.44;5069581;28;20110;-70
2022/04/27 04:24:23;;;;;;;11.05;4.07;;;;;;;9.96;57.14;101766.13;5069337;28;20469;-70
2022/04/27 04:29:34;;;;;;;8.02;4.10;;;;;;;10.07;56.60;101759.63;5069298;28;20197;-70
2022/04/27 04:32:00;;;;;;;6.82;4.43;;;;;;;10.21;56.09;101761.81;5073640;28;20044;-69
2022/04/27 04:34:27;;;;;;;6.93;3.58;;;;;;;10.31;56.33;101778.94;5071879;28;20514;-69
2022/04/27 04:36:53;;;;;;;8.13;4.25;;;;;;;10.34;55.73;101781.47;5068932;28;20082;-69
2022/04/27 04:39:20;;;;;;;6.68;4.25;;;;;;;10.27;56.21;101787.84;5068795;28;20064;-69
2022/04/27 04:41:47;;;;;;;8.18;4.80;;;;;;;10.26;56.78;101786.13;5084382;28;20048;-69
2022/04/27 04:44:13;;;;;;;13.93;5.00;;;;;;;10.35;56.29;101788.41;5089412;28;20044;-69
2022/04/27 04:46:41;;;;;;;6.88;4.50;;;;;;;9.90;57.80;101798.66;5088769;28;20044;-70
2022/04/27 04:49:07;;;;;;;8.65;4.70;;;;;;;10.29;56.48;101806.97;5088542;28;20048;-70
2022/04/27 04:51:33;;;;;;;8.98;4.68;;;;;;;10.42;56.47;101810.06;5089353;28;20410;-69
2022/04/27 04:54:00;;;;;;;7.88;5.03;;;;;;;10.10;57.28;101816.31;5088891;28;20056;-69
2022/04/27 04:56:26;;;;;;;10.25;5.35;;;;;;;9.88;57.91;101817.91;5076339;28;20482;-69
2022/04/27 04:58:53;;;;;;;8.35;4.93;;;;;;;9.98;57.58;101821.94;5081275;28;20113;-69
2022/04/27 05:01:19;;;;;;;10.23;5.28;;;;;;;10.17;57.08;101818.72;5072440;28;20716;-69
2022/04/27 05:03:47;;;;;;;8.60;4.35;;;;;;;10.64;55.42;101822.34;5065007;28;20052;-69
2022/04/27 05:06:14;;;;;;;11.43;4.70;;;;;;;10.52;55.74;101820.19;5067589;28;20044;-69
2022/04/27 05:08:40;;;;;;;7.72;4.57;;;;;;;10.83;55.26;101827.81;5065170;28;20079;-69
2022/04/27 05:11:06;;;;;;;9.10;5.00;;;;;;;11.08;54.09;101827.81;5065814;28;20047;-69
2022/04/27 05:13:34;;;;;;;14.50;5.20;;;;;;;11.16;53.01;101826.59;5089327;28;20491;-69
2022/04/27 05:16:01;;;;;;;8.20;4.30;;;;;;;11.64;52.45;101834.41;5085340;28;20115;-69
2022/04/27 05:18:27;;;;;;;8.10;4.80;;;;;;;11.86;52.04;101829.19;5088665;28;20040;-69
2022/04/27 05:20:55;;;;;;;11.48;5.13;;;;;;;12.25;51.10;101842.50;5085289;28;20055;-69
2022/04/27 05:23:21;;;;;;;13.45;4.82;;;;;;;12.25;50.49;101845.16;5068697;28;20048;-69
2022/04/27 05:25:47;;;;;;;10.27;4.93;;;;;;;12.44;50.94;101848.72;5068284;28;20121;-69
2022/04/27 05:28:14;;;;;;;11.65;5.38;;;;;;;13.07;49.31;101844.25;5068257;28;20040;-69
2022/04/27 05:33:24;;;;;;;8.68;5.10;;;;;;;12.83;49.87;101853.19;5066408;28;20067;-69
2022/04/27 05:35:51;;;;;;;8.05;4.93;;;;;;;13.10;49.98;101839.72;5068430;28;20123;-69
2022/04/27 05:38:18;;;;;;;8.15;4.40;;;;;;;13.02;50.54;101846.22;5068269;28;20048;-69
2022/04/27 05:40:44;;;;;;;9.82;5.10;;;;;;;13.32;49.87;101849.28;5068818;28;20513;-69
2022/04/27 05:43:11;;;;;;;16.55;5.60;;;;;;;13.64;49.01;101857.41;5088476;28;20044;-69
2022/04/27 05:45:37;;;;;;;8.07;4.68;;;;;;;14.12;47.80;101859.50;5088019;28;20051;-69
2022/04/27 05:48:04;;;;;;;10.45;4.93;;;;;;;14.09;47.56;101867.56;5088603;28;20101;-69
2022/04/27 05:50:34;;;;;;;10.20;5.50;;;;;;;13.74;47.32;101870.19;5087507;28;20445;-69
2022/04/27 05:53:03;;;;;;;10.48;5.22;;;;;;;13.36;48.15;101875.44;5088353;28;20457;-69
2022/04/27 05:55:31;;;;;;;9.10;5.35;;;;;;;13.18;48.98;101883.28;5087959;28;20141;-69
2022/04/27 05:57:57;;;;;;;8.07;5.78;;;;;;;13.12;49.77;101881.78;5086104;28;20047;-69
2022/04/27 06:00:24;;;;;;;12.55;6.20;;;;;;;13.50;50.34;101880.91;5081423;28;20051;-69
2022/04/27 06:02:50;;;;;;;14.13;6.40;;;;;;;13.90;49.53;101893.09;5080164;28;20044;-69
2022/04/27 06:05:17;;;;;;;16.45;7.10;;;;;;;14.44;47.30;101884.34;5088181;28;20047;-69
2022/04/27 06:07:43;;;;;;;12.80;6.55;;;;;;;14.64;47.30;101885.97;5088134;28;20109;-69
2022/04/27 06:10:10;;;;;;;17.55;6.20;;;;;;;14.75;46.50;101888.06;5087334;28;20427;-69
2022/04/27 06:12:46;;;;;;;17.50;6.55;;;;;;;14.54;45.79;101884.72;5076811;28;20043;-69
2022/04/27 06:15:13;;;;;;;17.60;6.38;;;;;;;14.43;46.80;101890.56;5086861;28;20123;-69
2022/04/27 06:17:40;;;;;;;21.23;6.85;;;;;;;14.03;47.92;101901.28;5078939;28;20060;-69
2022/04/27 06:20:07;;;;;;;17.77;6.18;;;;;;;14.13;48.37;101898.13;5080852;28;20572;-69
2022/04/27 06:22:33;;;;;;;14.27;5.68;;;;;;;14.14;48.12;101897.22;5059321;28;20044;-69
2022/04/27 06:24:59;;;;;;;9.25;6.22;;;;;;;14.58;47.70;101904.78;5066209;28;20101;-69
2022/04/27 06:27:26;;;;;;;13.93;6.60;;;;;;;14.80;46.52;101901.91;5049566;28;20420;-69
2022/04/27 06:29:54;;;;;;;11.73;5.65;;;;;;;14.89;46.88;101904.09;5067996;28;20093;-69
2022/04/27 06:32:20;;;;;;;11.65;6.10;;;;;;;15.03;45.73;101899.81;5068970;28;20093;-71
2022/04/27 06:34:46;;;;;;;14.63;6.72;;;;;;;15.69;45.24;101891.88;5081688;28;20098;-70
2022/04/27 06:37:13;;;;;;;10.98;6.35;;;;;;;15.86;45.79;101909.47;5087905;28;20040;-70
2022/04/27 06:39:40;;;;;;;12.10;6.00;;;;;;;16.07;44.76;101897.72;5087345;28;20527;-70
2022/04/27 06:42:07;;;;;;;9.93;5.88;;;;;;;15.81;45.61;101901.81;5087658;28;20044;-70
2022/04/27 06:44:34;;;;;;;12.00;7.40;;;;;;;16.04;46.01;101903.13;5088469;28;20040;-70
2022/04/27 06:47:03;;;;;;;7.18;5.18;;;;;;;16.18;43.71;101900.59;5087680;28;20056;-70
2022/04/27 06:49:30;;;;;;;11.18;5.50;;;;;;;16.46;42.70;101900.72;5086888;28;20055;-70
2022/04/27 06:51:56;;;;;;;8.43;5.45;;;;;;;17.19;43.09;101914.06;5086034;28;20101;-69
2022/04/27 06:54:22;;;;;;;7.05;5.00;;;;;;;17.57;41.66;101906.44;5087018;28;20086;-69
2022/04/27 06:56:48;;;;;;;6.63;5.05;;;;;;;17.75;42.34;101907.94;5086938;28;20473;-69
2022/04/27 06:59:15;;;;;;;8.75;5.20;;;;;;;17.80;41.73;101913.81;5086651;28;20040;-69
2022/04/27 07:01:41;;;;;;;9.15;5.28;;;;;;;18.11;39.56;101910.91;5079562;28;20040;-69
2022/04/27 07:04:11;;;;;;;10.60;4.88;;;;;;;18.34;39.16;101917.38;5087653;28;20048;-69
2022/04/27 07:06:37;;;;;;;6.43;5.05;;;;;;;18.51;39.67;101917.16;5087597;28;20131;-71
2022/04/27 07:09:05;;;;;;;10.50;5.20;;;;;;;18.70;40.79;101917.63;5070655;28;20045;-72
2022/04/27 07:11:31;;;;;;;11.20;5.63;;;;;;;19.13;36.00;101918.22;5068848;28;20048;-71
2022/04/27 07:13:58;;;;;;;7.80;5.32;;;;;;;19.32;36.98;101926.66;5071192;28;20109;-70
2022/04/27 07:16:24;;;;;;;10.70;5.72;;;;;;;19.51;35.21;101928.06;5070713;28;20045;-71
2022/04/27 07:18:53;;;;;;;10.80;5.22;;;;;;;19.63;38.30;101930.69;5070361;28;20098;-71
2022/04/27 07:21:21;;;;;;;7.40;5.20;;;;;;;19.46;36.48;101933.69;5070711;28;20044;-70
2022/04/27 07:23:47;;;;;;;6.88;5.47;;;;;;;19.72;36.27;101924.72;5070853;28;20097;-70
2022/04/27 07:26:14;;;;;;;7.35;5.05;;;;;;;19.72;35.71;101929.19;5089635;28;20117;-70
2022/04/27 07:28:41;;;;;;;6.13;5.07;;;;;;;19.43;33.78;101929.44;5066473;28;20106;-70
2022/04/27 07:31:08;;;;;;;6.82;5.40;;;;;;;19.74;36.81;101943.22;5061368;28;20075;-72
2022/04/27 07:33:35;;;;;;;11.10;5.25;;;;;;;19.63;34.10;101940.47;5068786;28;20044;-71
2022/04/27 07:36:01;;;;;;;8.95;5.57;;;;;;;19.99;37.17;101935.22;5069892;28;20472;-71
2022/04/27 07:38:29;;;;;;;7.53;5.38;;;;;;;19.98;33.55;101932.66;5066288;28;20052;-71
2022/04/27 07:40:55;;;;;;;6.55;5.50;;;;;;;18.55;36.68;101945.19;5061095;28;20053;-71
2022/04/27 07:43:22;;;;;;;7.15;5.07;;;;;;;17.93;38.41;101944.78;5070741;28;20086;-71
2022/04/27 07:45:48;;;;;;;7.22;5.20;;;;;;;18.60;39.95;101952.88;5070489;28;20094;-71
2022/04/27 07:48:14;;;;;;;8.60;5.45;;;;;;;18.91;39.89;101944.56;5074547;28;20132;-70
2022/04/27 07:50:41;;;;;;;11.50;5.38;;;;;;;18.48;40.35;101952.69;5069247;28;20121;-71
2022/04/27 07:53:07;;;;;;;10.15;6.60;;;;;;;18.38;41.05;101953.41;5070445;28;20044;-71
2022/04/27 07:55:35;;;;;;;8.32;5.43;;;;;;;18.40;41.52;101960.31;5071174;28;20094;-71
2022/04/27 07:58:01;;;;;;;9.23;5.55;;;;;;;19.13;42.11;101966.09;5068552;28;20056;-71
2022/04/27 08:00:29;;;;;;;9.93;5.68;;;;;;;19.79;38.49;101957.06;5072954;28;20572;-72
2022/04/27 08:02:55;;;;;;;10.48;5.90;;;;;;;20.34;38.82;101959.28;5099918;28;20072;-71
2022/04/27 08:05:22;;;;;;;7.70;5.53;;;;;;;20.60;41.68;101965.34;5110799;27;20079;-72
2022/04/27 08:07:48;;;;;;;8.75;5.65;;;;;;;20.87;40.46;101969.50;5107605;27;20043;-71
2022/04/27 08:10:17;;;;;;;6.93;5.10;;;;;;;21.06;35.51;101955.59;5074455;27;20052;-71
2022/04/27 08:12:48;;;;;;;8.75;5.65;;;;;;;21.56;37.51;101962.38;5103037;28;20051;-72
2022/04/27 08:15:15;;;;;;;12.40;5.47;;;;;;;21.93;35.61;101963.00;5075269;27;20052;-72
2022/04/27 08:17:55;;;;;;;9.57;5.10;;;;;;;22.36;32.02;101959.56;5102600;28;20044;-72
2022/04/27 08:23:08;;;;;;;8.57;5.22;;;;;;;21.93;31.10;101949.66;5074248;28;20133;-72
2022/04/27 08:25:35;;;;;;;9.20;5.28;;;;;;;22.08;33.99;101956.44;5077628;28;20040;-72
2022/04/27 08:28:06;;;;;;;7.35;5.20;;;;;;;21.80;34.65;101948.94;5067170;28;20484;-72
2022/04/27 08:30:33;;;;;;;10.50;5.63;;;;;;;22.67;35.69;101950.69;5064379;28;20415;-72
2022/04/27 08:33:00;;;;;;;9.10;5.13;;;;;;;22.84;33.26;101957.34;5065413;28;20663;-72
2022/04/27 08:35:27;;;;;;;7.03;5.13;;;;;;;22.39;30.86;101956.63;5069805;28;20094;-70
2022/04/27 08:37:53;;;;;;;6.82;5.40;;;;;;;22.04;33.47;101957.66;5081064;28;20044;-70
2022/04/27 08:40:20;;;;;;;9.05;5.57;;;;;;;21.79;33.31;101969.44;5080232;28;20063;-72
2022/04/27 08:42:47;;;;;;;8.68;5.20;;;;;;;22.43;33.03;101964.25;5083411;27;20044;-72
2022/04/27 08:45:16;;;;;;;8.38;5.70;;;;;;;22.08;33.41;101960.94;5108540;27;20535;-72
2022/04/27 08:47:43;;;;;;;6.72;5.00;;;;;;;22.30;31.47;101968.91;5109168;28;20073;-72
2022/04/27 08:50:13;;;;;;;9.27;5.55;;;;;;;22.42;32.49;101967.06;5109087;28;20497;-72
2022/04/27 08:52:40;;;;;;;7.97;4.60;;;;;;;23.12;31.85;101973.59;5107980;28;20455;-72
2022/04/27 08:55:08;;;;;;;7.88;5.35;;;;;;;23.23;30.33;101975.34;5110133;27;20096;-72
2022/04/27 08:57:34;;;;;;;8.95;5.55;;;;;;;23.40;30.71;101976.56;5088331;28;20473;-72
2022/04/27 09:00:01;;;;;;;8.40;5.72;;;;;;;22.69;28.13;101981.69;5075591;28;20044;-72
2022/04/27 09:02:29;;;;;;;10.43;6.32;;;;;;;22.32;29.75;101980.31;5073460;28;20052;-71
2022/04/27 09:05:07;;;;;;;13.73;6.00;;;;;;;22.81;33.82;101979.81;5084435;28;20621;-71
2022/04/27 09:07:36;;;;;;;6.10;4.82;;;;;;;22.66;31.71;101975.72;5088234;28;20040;-71
2022/04/27 09:10:03;;;;;;;8.18;5.70;;;;;;;22.03;31.08;101973.78;5065058;28;20044;-71
2022/04/27 09:12:30;;;;;;;9.55;5.40;;;;;;;23.38;31.11;101978.53;5072335;28;20044;-72
2022/04/27 09:15:03;;;;;;;8.63;5.38;;;;;;;22.64;29.30;101977.69;5067615;28;20106;-72
2022/04/27 09:22:59;;;;;;;14.52;4.63;;;;;;;24.21;28.59;101981.91;5067560;28;20044;-71
2022/04/27 09:25:34;;;;;;;10.95;5.00;;;;;;;23.52;29.74;101978.22;5082653;28;20044;-71
2022/04/27 09:28:02;;;;;;;9.38;5.00;;;;;;;23.50;30.89;101980.22;5087567;28;20055;-72
2022/04/27 09:30:30;;;;;;;8.60;4.40;;;;;;;24.30;30.50;101974.88;5086338;28;20056;-72
2022/04/27 09:32:58;;;;;;;7.00;4.50;;;;;;;24.39;30.91;101984.78;5074014;28;20466;-71
2022/04/27 09:35:32;;;;;;;6.32;4.00;;;;;;;24.82;26.06;101982.56;5068441;28;20044;-68
2022/04/27 09:38:12;;;;;;;8.50;3.83;;;;;;;23.70;26.96;101974.81;5080902;28;20047;-67
2022/04/27 09:40:45;;;;;;;8.15;4.47;;;;;;;23.98;26.28;101967.03;5079200;28;20036;-67
2022/04/27 09:43:13;;;;;;;9.20;4.57;;;;;;;24.28;28.78;101980.38;5086608;28;20040;-68
2022/04/27 09:45:40;;;;;;;7.10;4.57;;;;;;;24.48;31.15;101983.94;5086708;28;20063;-68
2022/04/27 09:48:11;;;;;;;7.03;4.18;;;;;;;24.84;27.90;101983.28;5068252;28;20493;-68
2022/04/27 09:50:48;;;;;;;7.18;4.47;;;;;;;25.17;27.88;101979.28;5067922;28;20089;-68
2022/04/27 09:53:15;;;;;;;7.47;4.38;;;;;;;24.14;27.14;101976.25;5081137;28;20052;-68
2022/04/27 09:55:46;;;;;;;7.55;4.60;;;;;;;24.13;26.83;101971.88;5088043;28;20098;-68
2022/04/27 09:58:14;;;;;;;8.30;4.47;;;;;;;23.42;28.23;101975.50;5085429;28;20050;-68
2022/04/27 10:00:42;;;;;;;12.40;5.20;;;;;;;24.06;30.40;101976.06;5085049;28;20055;-68
2022/04/27 10:03:13;;;;;;;6.18;4.35;;;;;;;24.35;30.26;101970.81;5082582;28;20050;-68
2022/04/27 10:05:39;;;;;;;6.82;4.32;;;;;;;24.10;32.66;101965.91;5070337;28;20044;-68
2022/04/27 10:08:07;;;;;;;6.43;4.95;;;;;;;24.23;28.27;101967.41;5068094;28;20040;-68
2022/04/27 10:10:35;;;;;;;7.10;4.25;;;;;;;23.91;29.39;101974.72;5059069;28;20706;-68
2022/04/27 10:13:02;;;;;;;5.70;4.40;;;;;;;24.51;30.03;101971.09;5063761;28;20550;-68
2022/04/27 10:15:30;;;;;;;6.68;3.55;;;;;;;24.34;26.36;101962.91;5078832;28;20076;-68
2022/04/27 10:17:57;;;;;;;9.52;3.80;;;;;;;23.33;27.69;101970.06;5087982;28;20101;-68
2022/04/27 10:20:29;;;;;;;5.43;3.50;;;;;;;22.99;28.88;101978.28;5087658;28;20066;-68
2022/04/27 10:23:17;;;;;;;7.80;4.40;;;;;;;22.39;30.84;101975.34;5087986;28;20056;-68
2022/04/27 10:26:14;;;;;;;9.07;4.07;;;;;;;21.40;29.16;101972.53;5073770;28;20050;-68
2022/04/27 10:28:44;;;;;;;6.18;4.32;;;;;;;21.24;31.73;101978.22;5075489;28;20036;-68
2022/04/27 10:31:11;;;;;;;6.63;4.35;;;;;;;21.67;32.59;101985.56;5080758;28;20052;-68
2022/04/27 10:33:48;;;;;;;7.07;4.30;;;;;;;22.08;30.62;101976.97;5086745;28;20044;-68
2022/04/27 10:36:38;;;;;;;5.25;3.75;;;;;;;22.44;34.63;101968.63;5067161;28;20033;-68
2022/04/27 10:39:19;;;;;;;6.18;4.40;;;;;;;22.60;31.21;101977.09;5071193;28;20041;-68
2022/04/27 10:41:54;;;;;;;7.97;4.00;;;;;;;22.76;31.09;101974.03;5066423;28;20049;-68
2022/04/27 10:44:21;;;;;;;5.82;3.95;;;;;;;23.42;32.63;101974.66;5067788;28;20516;-68
2022/04/27 10:46:47;;;;;;;7.70;4.47;;;;;;;24.13;31.21;101971.88;5071378;28;20117;-68
2022/04/27 10:49:25;;;;;;;9.32;5.20;;;;;;;24.18;31.31;101976.81;5070733;28;20075;-68
2022/04/27 10:52:01;;;;;;;10.05;5.38;;;;;;;24.38;24.98;101975.03;5071193;28;20043;-68
2022/04/27 10:54:27;;;;;;;7.80;4.53;;;;;;;23.88;27.36;101972.31;5071737;28;20132;-68
2022/04/27 10:56:54;;;;;;;6.78;5.30;;;;;;;23.63;28.63;101968.28;5070700;28;20052;-68
2022/04/27 10:59:45;;;;;;;8.40;4.95;;;;;;;23.41;32.93;101970.25;5089164;28;20044;-68
2022/04/27 11:02:31;;;;;;;7.20;4.60;;;;;;;23.60;32.69;101968.56;5065789;28;20033;-68
2022/04/27 11:04:58;;;;;;;7.88;4.80;;;;;;;23.90;29.24;101973.06;5067837;28;20279;-68
2022/04/27 11:07:32;;;;;;;7.07;4.93;;;;;;;24.78;33.66;101970.41;5071033;28;20423;-68
2022/04/27 11:10:12;;;;;;;7.40;4.80;;;;;;;25.25;29.47;101965.16;5069443;28;20126;-68
2022/04/27 11:12:40;;;;;;;7.82;4.50;;;;;;;25.10;28.70;101964.75;5070098;28;20040;-68
2022/04/27 11:15:08;;;;;;;7.70;4.93;;;;;;;24.16;29.09;101971.63;5090266;28;20047;-68
2022/04/27 11:17:34;;;;;;;6.32;4.70;;;;;;;23.65;31.47;101960.13;5086804;28;20059;-68
2022/04/27 11:20:02;;;;;;;10.85;5.38;;;;;;;24.10;33.09;101969.44;5079628;28;20097;-68
2022/04/27 11:22:37;;;;;;;9.13;4.68;;;;;;;24.24;31.76;101966.41;5081140;28;20044;-68
2022/04/27 11:25:07;;;;;;;7.90;5.30;;;;;;;24.34;30.16;101960.22;5087510;28;20047;-68
2022/04/27 11:27:35;;;;;;;6.55;4.82;;;;;;;23.85;28.59;101959.22;5090728;28;20044;-68
2022/04/27 11:30:04;;;;;;;6.57;4.88;;;;;;;23.32;29.52;101969.19;5089847;28;20389;-68
2022/04/27 11:32:30;;;;;;;7.93;4.68;;;;;;;22.48;31.46;101972.75;5081577;28;20089;-68
2022/04/27 11:34:56;;;;;;;10.85;4.85;;;;;;;22.18;33.09;101968.06;5089528;28;20044;-68
2022/04/27 11:37:23;;;;;;;6.85;5.15;;;;;;;22.00;32.43;101964.22;5090997;28;20093;-68
2022/04/27 11:39:51;;;;;;;7.28;5.18;;;;;;;21.92;33.07;101969.31;5088812;28;20047;-68
2022/04/27 11:42:18;;;;;;;6.53;4.95;;;;;;;21.80;35.27;101965.78;5082736;28;20036;-68
2022/04/27 11:44:51;;;;;;;9.95;5.00;;;;;;;21.95;32.98;101962.91;5090664;28;20046;-68
2022/04/27 11:47:28;;;;;;;8.23;5.20;;;;;;;22.31;31.06;101963.44;5090744;28;20503;-68